EDQMEDDN

Guest
Details From EDQM - Hof Plauen
To EDDN - Nurnberg
Flight Number -
Tags decoded
Created
Modified
Stats Distance 60 nm / 112 km
Max Altitude 0 ft / 0 m
Waypoints 7
Social Downloads 4
Likes 0
Share VATSIM

Download

Looking for another format? Having issues loading an existing format? Contact us
Advertisement - Login to hide

Notes

Requested: EDQM HOF KULOK BAY NIBIL PIVIR ERL EDDN Unmatched points: PIVIR

Route

EDQM HOF KULOK BAY NIBIL ERL EDDN

ID Type Via Altitude Latitude Longitude Leg Dist Tot Dist Heading (true) Name
O EDQM APT - 0 ft / 0 m 50.28864˚ 11.85406˚ - 0 nm - Hof Plauen
HOF NDB - 0 ft / 0 m 50.28463˚ 11.76139˚ 3 nm 3 nm 266° / 266° HOF NDB
KULOK FIX - 0 ft / 0 m 50.07278˚ 11.63056˚ 13 nm 17 nm 202° / 202° -
BAY VOR - 0 ft / 0 m 49.98515˚ 11.63667˚ 5 nm 22 nm 177° / 177° BAYREUTH VOR
NIBIL FIX - 0 ft / 0 m 49.85056˚ 11.54361˚ 8 nm 31 nm 204° / 204° -
ERL VOR - 0 ft / 0 m 49.65541˚ 11.15081˚ 19 nm 50 nm 233° / 232° ERLANGEN VOR-DME
O EDDN APT - 0 ft / 0 m 49.49874˚ 11.07758˚ 9 nm 60 nm 197° / 197° Nurnberg

Altitude Profile

Advertisement - Login to hide

EDQM

Details ICAO EDQM (HOQ)
Name Hof Plauen
Region Germany - Civil
Timezone Europe/Berlin (UTC+1.0)
Stats Elevation 1,960 ft / 597 m (AMSL)
Location 50.288643° 11.854065°
Runways 1
Magnetic Variation 3.247° E

METAR

EDQM 141720Z 20018KT 4400 -SN BKN017 01/M02 Q0994

Decode

TAF

Not found

Departure Runways

ID Width Length Bearing (true) Bearing (mag) Surface Threshold Offset Overrun Length
09 98 ft / 30 m 4,842 ft / 1,476 m 86.76° 83.51° Asphalt 788 ft / 240 m 0 ft / 0 m
27 98 ft / 30 m 4,842 ft / 1,476 m 266.78° 263.53° Asphalt 197 ft / 60 m 0 ft / 0 m

EDDN

Details ICAO EDDN (NUE)
Name Nurnberg
Region Germany - Civil
Timezone Europe/Berlin (UTC+1.0)
Stats Elevation 1,045 ft / 319 m (AMSL)
Location 49.498744° 11.077580°
Runways 1
Magnetic Variation 3.019° E

METAR

EDDN 141720Z 19011KT 9999 BKN044 05/M01 Q0997 R28/29//95 NOSIG

Decode

TAF

TAF TAF EDDN 141100Z 1412/1512 24020G35KT 9999 FEW015 BKN035 BECMG 1414/1416 20012KT TEMPO 1415/1423 SHRA BKN014TCU BECMG 1418/1420 18007KT TEMPO 1423/1502 RA BKN009 TEMPO 1502/1512 26020G30KT 3000 SHRASN BKN008CB

Decode

Destination Runways

ID Width Length Bearing (true) Bearing (mag) Surface Threshold Offset Overrun Length
10 148 ft / 45 m 8,819 ft / 2,688 m 98.60° 95.58° Asphalt 0 ft / 0 m 0 ft / 0 m
28 148 ft / 45 m 8,819 ft / 2,688 m 278.63° 275.61° Asphalt 0 ft / 0 m 0 ft / 0 m

Approach Navaids

Runway Type Ident Frequency Range Bearing (true) Bearing (mag) Slope Elevation
10 Localiser INUE 111.30 MHz 18 nm / 33 km 98.64° 95.62° - 1,046 ft / 319 m (AMSL)
10 Glidescope INUE 111.30 MHz 10 nm / 19 km 98.61° 95.60° 3.00° 1,022 ft / 312 m (AMSL)
28 Localiser INUW 109.10 MHz 23 nm / 43 km 278.59° 275.57° - 1,122 ft / 342 m (AMSL)
28 Glidescope INUW 109.10 MHz 10 nm / 19 km 278.62° 275.60° 3.00° 1,046 ft / 319 m (AMSL)